Santa Rosa, California
Current Conditions -  °F | °C
As of 6:01 AM on Thursday 29 Jan 2015 (Local Time) from KSTS Reporting Station
Haze Haze  
Wind Chill: 39°   Ceiling: 200
Heat Index: 39°   Visibility: 0.75mi
Dew Point: 39°   Wind: 0mph
Humidity: 100%   Direction: NA
Pressure: 30.13"   Gusts: NA
Location:  38.44°N, 122.71°W
Report Text: KSTS 291401Z AUTO 00000KT 3/4SM BR VV002 04/04 A3013 RMK AO2
Loading
Personal Weather Stations






























Interactive Weather Map New forecast layout! Learn more

10-Day Weather Forecast

Advertisements
Track Severe Weather on mobile